Time;durP1;ratioP1;P1;durP2;ratioP2;P2;SDS_P1;SDS_P2;PMS_P1;PMS_P2;Temp;Humidity;BMP_temperature;BMP_pressure;BME280_temperature;BME280_humidity;BME280_pressure;Samples;Min_cycle;Max_cycle;Signal;HPM_P1;HPM_P2
2021/10/04 00:02:16;;;;;;;4.32;2.67;;;13.10;99.90;;;;;;5051922;28;20466;-74
2021/10/04 00:04:42;;;;;;;2.00;1.80;;;13.00;99.90;;;;;;5039095;28;20036;-75
2021/10/04 00:07:08;;;;;;;2.08;1.63;;;13.00;99.90;;;;;;5052246;28;20040;-74
2021/10/04 00:09:34;;;;;;;2.35;1.70;;;13.10;99.90;;;;;;5052282;28;20041;-76
2021/10/04 00:12:01;;;;;;;2.25;1.50;;;13.10;99.90;;;;;;5051743;28;20060;-76
2021/10/04 00:14:27;;;;;;;2.72;1.83;;;13.10;99.90;;;;;;5052150;28;20033;-76
2021/10/04 00:16:55;;;;;;;1.60;1.50;;;13.10;99.90;;;;;;5051784;28;20033;-75
2021/10/04 00:19:21;;;;;;;1.30;1.20;;;13.10;99.90;;;;;;5051919;28;20386;-75
2021/10/04 00:21:48;;;;;;;2.17;1.83;;;13.20;99.90;;;;;;5055022;28;20029;-75
2021/10/04 00:24:14;;;;;;;1.60;1.50;;;13.20;99.90;;;;;;5055659;28;20371;-75
2021/10/04 00:26:41;;;;;;;1.90;1.80;;;13.20;99.90;;;;;;5053797;28;20044;-75
2021/10/04 00:29:07;;;;;;;1.95;1.35;;;13.20;99.90;;;;;;5054752;28;20049;-75
2021/10/04 00:31:33;;;;;;;1.38;1.02;;;13.20;99.90;;;;;;5055234;28;20033;-75
2021/10/04 00:34:01;;;;;;;1.10;0.80;;;13.20;99.90;;;;;;5053238;28;20047;-74
2021/10/04 00:36:28;;;;;;;1.08;0.70;;;13.20;99.90;;;;;;5055649;28;20029;-74
2021/10/04 00:38:54;;;;;;;6.57;1.38;;;13.30;99.90;;;;;;5054804;28;20033;-74
2021/10/04 00:41:20;;;;;;;2.47;1.20;;;13.30;99.90;;;;;;5055339;28;20037;-74
2021/10/04 00:43:47;;;;;;;1.00;0.80;;;13.20;99.90;;;;;;5053889;28;20056;-74
2021/10/04 00:46:13;;;;;;;1.02;0.70;;;13.20;99.90;;;;;;5055321;28;20041;-74
2021/10/04 00:48:40;;;;;;;1.75;0.82;;;13.20;99.90;;;;;;5054523;28;20037;-76
2021/10/04 00:51:06;;;;;;;1.48;0.93;;;13.20;99.90;;;;;;5054779;28;20025;-75
2021/10/04 00:53:32;;;;;;;0.80;0.73;;;13.20;99.90;;;;;;5055310;28;20037;-74
2021/10/04 00:55:59;;;;;;;1.00;0.70;;;13.20;99.90;;;;;;5054382;28;20594;-75
2021/10/04 00:58:26;;;;;;;1.23;1.00;;;13.20;99.90;;;;;;5055267;28;20036;-75
2021/10/04 01:00:52;;;;;;;0.73;0.60;;;13.20;99.90;;;;;;5053412;28;20037;-75
2021/10/04 01:03:19;;;;;;;2.15;0.90;;;13.20;99.90;;;;;;5037238;28;20051;-75
2021/10/04 01:05:45;;;;;;;2.20;1.05;;;13.10;99.90;;;;;;5054690;28;20032;-75
2021/10/04 01:08:11;;;;;;;1.10;0.77;;;13.10;99.90;;;;;;5055010;28;20033;-76
2021/10/04 01:10:37;;;;;;;1.52;0.77;;;13.00;99.90;;;;;;5055246;28;20043;-75
2021/10/04 01:13:04;;;;;;;0.68;0.68;;;13.10;99.90;;;;;;5054086;28;20044;-75
2021/10/04 01:15:30;;;;;;;0.93;0.75;;;13.00;99.90;;;;;;5053214;28;20045;-75
2021/10/04 01:17:56;;;;;;;0.55;0.55;;;13.00;99.90;;;;;;5054945;28;20032;-75
2021/10/04 01:20:26;;;;;;;0.45;0.40;;;13.00;99.90;;;;;;5054845;28;20052;-75
2021/10/04 01:22:53;;;;;;;1.13;0.60;;;13.00;99.90;;;;;;5054174;28;20033;-74
2021/10/04 01:25:21;;;;;;;0.40;0.40;;;13.00;99.90;;;;;;5054241;28;20459;-74
2021/10/04 01:27:48;;;;;;;1.33;0.85;;;13.00;99.90;;;;;;5053998;28;20035;-75
2021/10/04 01:30:17;;;;;;;1.02;0.93;;;13.00;99.90;;;;;;5054482;28;20355;-75
2021/10/04 01:32:44;;;;;;;1.10;1.00;;;13.00;99.90;;;;;;5053201;28;20044;-75
2021/10/04 01:35:11;;;;;;;1.20;1.00;;;13.00;99.90;;;;;;5054349;28;20047;-75
2021/10/04 01:37:38;;;;;;;2.08;1.35;;;12.90;99.90;;;;;;5054200;28;20037;-75
2021/10/04 01:40:07;;;;;;;1.02;0.93;;;12.90;99.90;;;;;;5054347;28;20040;-75
2021/10/04 01:42:33;;;;;;;2.08;1.38;;;12.90;99.90;;;;;;5054302;28;20029;-75
2021/10/04 01:44:59;;;;;;;1.48;1.23;;;12.90;99.90;;;;;;5054020;28;20041;-75
2021/10/04 01:47:26;;;;;;;1.17;1.00;;;12.90;99.90;;;;;;5054207;28;20029;-76
2021/10/04 01:49:52;;;;;;;1.08;0.98;;;12.90;99.90;;;;;;5051852;28;20049;-75
2021/10/04 01:52:18;;;;;;;1.17;0.98;;;12.90;99.90;;;;;;5054075;28;20033;-75
2021/10/04 01:54:44;;;;;;;1.50;1.40;;;12.90;99.90;;;;;;5053620;28;20032;-75
2021/10/04 01:57:10;;;;;;;1.58;1.15;;;12.90;99.90;;;;;;5053997;28;20037;-75
2021/10/04 01:59:37;;;;;;;1.75;0.90;;;12.90;99.90;;;;;;5053615;28;20037;-75
2021/10/04 02:02:03;;;;;;;1.05;0.95;;;12.90;99.90;;;;;;5047030;28;20052;-75
2021/10/04 02:04:30;;;;;;;2.67;0.80;;;12.80;99.90;;;;;;5053933;28;20036;-75
2021/10/04 02:06:56;;;;;;;0.73;0.60;;;12.80;99.90;;;;;;5053608;28;20036;-75
2021/10/04 02:09:22;;;;;;;1.30;0.80;;;12.80;99.90;;;;;;5054155;28;20045;-75
2021/10/04 02:11:48;;;;;;;0.47;0.47;;;12.80;99.90;;;;;;5053146;28;20045;-75
2021/10/04 02:14:15;;;;;;;1.25;0.80;;;12.80;99.90;;;;;;5054035;28;20395;-75
2021/10/04 02:16:42;;;;;;;2.13;0.98;;;12.80;99.90;;;;;;5053452;28;20036;-76
2021/10/04 02:19:08;;;;;;;1.63;0.75;;;12.80;99.90;;;;;;5035991;28;20072;-75
2021/10/04 02:21:35;;;;;;;1.10;0.70;;;12.70;99.90;;;;;;5053826;28;20029;-75
2021/10/04 02:24:02;;;;;;;3.17;0.65;;;12.70;99.90;;;;;;5035068;28;20037;-76
2021/10/04 02:26:28;;;;;;;1.10;0.77;;;12.70;99.90;;;;;;5053583;28;20469;-75
2021/10/04 02:28:55;;;;;;;1.73;0.65;;;12.70;99.90;;;;;;5052873;28;20037;-75
2021/10/04 02:31:21;;;;;;;0.40;0.40;;;12.70;99.90;;;;;;5053442;28;20033;-75
2021/10/04 02:33:47;;;;;;;0.98;0.68;;;12.70;99.90;;;;;;5053264;28;20039;-75
2021/10/04 02:36:13;;;;;;;1.25;0.60;;;12.70;99.90;;;;;;5053307;28;20024;-76
2021/10/04 02:38:39;;;;;;;1.15;0.95;;;12.70;99.90;;;;;;5051965;28;20442;-75
2021/10/04 02:41:06;;;;;;;2.05;0.93;;;12.60;99.90;;;;;;5052973;28;20036;-76
2021/10/04 02:43:32;;;;;;;2.03;0.98;;;12.60;99.90;;;;;;5046909;28;20056;-75
2021/10/04 02:45:58;;;;;;;0.80;0.80;;;12.60;99.90;;;;;;5053593;28;20052;-75
2021/10/04 02:48:24;;;;;;;3.05;1.08;;;12.60;99.90;;;;;;5052978;28;20041;-76
2021/10/04 02:50:54;;;;;;;4.15;1.00;;;12.50;99.90;;;;;;5052594;28;20044;-75
2021/10/04 02:53:20;;;;;;;0.77;0.60;;;12.50;99.90;;;;;;5053133;28;20036;-75
2021/10/04 02:55:46;;;;;;;1.40;0.90;;;12.50;99.90;;;;;;5050877;28;20493;-76
2021/10/04 02:58:12;;;;;;;0.80;0.68;;;12.50;99.90;;;;;;5052654;28;20024;-75
2021/10/04 03:00:38;;;;;;;1.00;0.60;;;12.40;99.90;;;;;;5052572;28;20463;-76
2021/10/04 03:03:06;;;;;;;1.08;0.73;;;12.30;99.90;;;;;;5052068;28;20029;-76
2021/10/04 03:05:32;;;;;;;0.65;0.60;;;12.30;99.90;;;;;;5052634;28;20044;-76
2021/10/04 03:08:00;;;;;;;0.60;0.40;;;12.30;99.90;;;;;;5052327;28;20037;-76
2021/10/04 03:10:26;;;;;;;3.08;0.85;;;12.30;99.90;;;;;;5052613;28;20067;-76
2021/10/04 03:12:53;;;;;;;0.70;0.52;;;12.40;99.90;;;;;;5045237;28;20041;-77
2021/10/04 03:15:19;;;;;;;3.20;0.82;;;12.40;99.90;;;;;;5052203;28;20478;-76
2021/10/04 03:17:45;;;;;;;0.60;0.40;;;12.40;99.90;;;;;;5052443;28;20027;-77
2021/10/04 03:20:11;;;;;;;2.55;0.75;;;12.40;99.90;;;;;;5052520;28;20040;-76
2021/10/04 03:22:38;;;;;;;0.70;0.68;;;12.40;99.90;;;;;;5052810;28;20036;-77
2021/10/04 03:25:06;;;;;;;1.00;0.70;;;12.40;99.90;;;;;;5051828;28;20024;-76
2021/10/04 03:27:32;;;;;;;0.88;0.55;;;12.40;99.90;;;;;;5061284;28;20032;-76
2021/10/04 03:29:58;;;;;;;0.70;0.60;;;12.30;99.90;;;;;;5055669;28;20040;-76
2021/10/04 03:32:25;;;;;;;1.30;0.82;;;12.30;99.90;;;;;;5052939;28;20052;-77
2021/10/04 03:34:51;;;;;;;1.83;1.00;;;12.30;99.90;;;;;;5052467;28;20481;-77
2021/10/04 03:37:17;;;;;;;1.10;0.85;;;12.30;99.90;;;;;;5052046;28;20048;-76
2021/10/04 03:39:43;;;;;;;7.05;1.10;;;12.30;99.90;;;;;;5052390;28;20390;-77
2021/10/04 03:42:10;;;;;;;1.58;1.48;;;12.30;99.90;;;;;;5050853;28;20041;-76
2021/10/04 03:44:36;;;;;;;1.55;1.27;;;12.30;99.90;;;;;;5033769;28;20045;-76
2021/10/04 03:47:03;;;;;;;1.90;1.70;;;12.20;99.90;;;;;;5052134;28;20478;-76
2021/10/04 03:49:29;;;;;;;2.45;2.00;;;12.20;99.90;;;;;;5052307;28;20443;-76
2021/10/04 03:51:55;;;;;;;2.50;2.30;;;12.20;99.90;;;;;;5052211;28;20033;-76
2021/10/04 03:54:21;;;;;;;2.63;2.10;;;12.30;99.90;;;;;;5051950;28;20033;-77
2021/10/04 03:56:48;;;;;;;3.35;2.55;;;12.30;99.90;;;;;;5051566;28;20035;-76
2021/10/04 03:59:14;;;;;;;4.03;2.90;;;12.30;99.90;;;;;;5052247;28;20037;-76
2021/10/04 04:01:40;;;;;;;4.03;3.47;;;12.40;99.90;;;;;;5051897;28;20029;-76
2021/10/04 04:04:06;;;;;;;3.90;3.47;;;12.40;99.90;;;;;;5048554;28;20585;-76
2021/10/04 04:06:32;;;;;;;3.65;3.35;;;12.40;99.90;;;;;;5051796;28;20025;-75
2021/10/04 04:08:58;;;;;;;5.15;3.88;;;12.30;99.90;;;;;;5051632;28;20033;-76
2021/10/04 04:11:25;;;;;;;4.47;3.92;;;12.20;99.90;;;;;;5052357;28;20029;-76
2021/10/04 04:13:52;;;;;;;4.60;4.22;;;12.30;99.90;;;;;;5033840;28;20033;-76
2021/10/04 04:16:18;;;;;;;4.50;4.10;;;12.20;99.90;;;;;;5051871;28;20052;-76
2021/10/04 04:18:44;;;;;;;5.47;4.82;;;12.20;99.90;;;;;;5051724;28;20082;-77
2021/10/04 04:21:11;;;;;;;5.72;4.30;;;12.10;99.90;;;;;;5034137;28;20032;-76
2021/10/04 04:23:37;;;;;;;4.40;4.10;;;12.10;99.90;;;;;;5052021;28;20036;-76
2021/10/04 04:26:03;;;;;;;3.35;2.95;;;12.10;99.90;;;;;;5060102;28;20079;-76
2021/10/04 04:28:29;;;;;;;4.95;3.55;;;12.10;99.90;;;;;;5053388;28;20029;-76
2021/10/04 04:30:56;;;;;;;3.60;3.30;;;12.20;99.90;;;;;;5051362;28;20075;-77
2021/10/04 04:33:22;;;;;;;3.78;3.35;;;12.20;99.90;;;;;;5051852;28;20035;-76
2021/10/04 04:35:48;;;;;;;3.83;3.53;;;12.20;99.90;;;;;;5051351;28;20032;-76
2021/10/04 04:38:15;;;;;;;4.97;4.57;;;12.20;99.90;;;;;;5051438;28;20490;-76
2021/10/04 04:40:41;;;;;;;5.80;5.30;;;12.20;99.90;;;;;;5052314;28;20100;-76
2021/10/04 04:43:08;;;;;;;5.00;4.05;;;12.20;99.90;;;;;;5051276;28;20040;-77
2021/10/04 04:45:34;;;;;;;3.92;3.63;;;12.20;99.90;;;;;;5051757;28;20053;-77
2021/10/04 04:48:00;;;;;;;3.67;3.38;;;12.20;99.90;;;;;;5051074;28;20506;-76
2021/10/04 04:50:27;;;;;;;3.05;2.85;;;12.30;99.90;;;;;;5051191;28;20033;-77
2021/10/04 04:52:53;;;;;;;2.45;2.25;;;12.20;99.90;;;;;;5049240;28;20041;-77
2021/10/04 04:55:19;;;;;;;4.10;3.08;;;12.20;99.90;;;;;;5051683;28;20394;-76
2021/10/04 04:57:45;;;;;;;3.13;2.92;;;12.20;99.90;;;;;;5051108;28;20029;-77
2021/10/04 05:00:13;;;;;;;3.88;3.38;;;12.20;99.90;;;;;;5051384;28;20044;-76
2021/10/04 05:02:46;;;;;;;4.00;3.70;;;12.20;99.90;;;;;;5051696;28;20044;-75
2021/10/04 05:05:15;;;;;;;3.65;3.45;;;12.20;99.90;;;;;;5051616;28;20031;-75
2021/10/04 05:07:42;;;;;;;4.50;3.70;;;12.20;99.90;;;;;;5053163;28;20473;-76
2021/10/04 05:10:09;;;;;;;4.00;3.60;;;12.10;99.90;;;;;;5064867;28;20480;-76
2021/10/04 05:12:35;;;;;;;4.93;4.53;;;12.10;99.90;;;;;;5055164;28;20024;-76
2021/10/04 05:15:03;;;;;;;4.82;4.45;;;12.10;99.90;;;;;;5055064;28;20033;-76
2021/10/04 05:17:30;;;;;;;4.78;4.38;;;12.20;99.90;;;;;;5054788;28;20037;-77
2021/10/04 05:19:56;;;;;;;4.35;4.05;;;12.20;99.90;;;;;;5079777;28;20068;-77
2021/10/04 05:22:22;;;;;;;4.82;4.40;;;12.20;99.90;;;;;;5054669;28;20052;-76
2021/10/04 05:24:48;;;;;;;4.00;3.60;;;12.20;99.90;;;;;;5054115;28;20064;-77
2021/10/04 05:27:14;;;;;;;3.15;2.92;;;12.20;99.90;;;;;;5054638;28;20029;-76
2021/10/04 05:29:41;;;;;;;3.15;2.95;;;12.20;99.90;;;;;;5054615;28;20056;-77
2021/10/04 05:32:07;;;;;;;4.65;3.05;;;12.20;99.90;;;;;;5054547;28;20036;-77
2021/10/04 05:34:33;;;;;;;2.92;2.72;;;12.20;99.90;;;;;;5054229;28;20037;-77
2021/10/04 05:37:00;;;;;;;3.38;3.08;;;12.10;99.90;;;;;;5053080;28;20037;-77
2021/10/04 05:39:26;;;;;;;3.15;2.85;;;12.10;99.90;;;;;;5054496;28;20037;-77
2021/10/04 05:41:52;;;;;;;3.40;3.10;;;12.10;99.90;;;;;;5052460;28;20056;-77
2021/10/04 05:44:18;;;;;;;3.55;3.25;;;12.10;99.90;;;;;;5054530;28;20375;-77
2021/10/04 05:46:44;;;;;;;3.55;3.25;;;12.10;99.90;;;;;;5054585;28;20029;-76
2021/10/04 05:49:11;;;;;;;3.35;3.15;;;12.10;99.90;;;;;;5053954;28;20136;-77
2021/10/04 05:51:37;;;;;;;4.32;3.92;;;12.10;99.90;;;;;;5054080;28;20037;-76
2021/10/04 05:54:03;;;;;;;4.82;4.25;;;12.20;99.90;;;;;;5053914;28;20041;-77
2021/10/04 05:56:29;;;;;;;5.47;4.97;;;12.20;99.90;;;;;;5053813;28;20045;-77
2021/10/04 05:58:55;;;;;;;6.93;6.32;;;12.20;99.90;;;;;;5053664;28;20025;-77
2021/10/04 06:01:21;;;;;;;8.85;8.15;;;12.10;99.90;;;;;;5054018;28;20035;-76
2021/10/04 06:03:48;;;;;;;9.02;8.32;;;12.20;99.90;;;;;;5053490;28;20076;-78
2021/10/04 06:06:14;;;;;;;8.82;8.23;;;12.20;99.90;;;;;;5054051;28;20028;-77
2021/10/04 06:08:40;;;;;;;9.43;8.73;;;12.20;99.90;;;;;;5053678;28;20040;-76
2021/10/04 06:11:06;;;;;;;9.40;8.70;;;12.20;99.90;;;;;;5053257;28;20037;-77
2021/10/04 06:13:32;;;;;;;9.70;8.90;;;12.20;99.90;;;;;;5053830;28;20378;-77
2021/10/04 06:15:58;;;;;;;11.80;10.93;;;12.30;99.90;;;;;;5073748;28;20033;-76
2021/10/04 06:18:25;;;;;;;12.18;11.38;;;12.30;99.90;;;;;;5070674;28;20029;-76
2021/10/04 06:20:52;;;;;;;12.27;11.38;;;12.30;99.90;;;;;;5059466;28;20037;-77
2021/10/04 06:23:19;;;;;;;12.25;11.45;;;12.30;99.90;;;;;;5057171;28;20033;-76
2021/10/04 06:25:45;;;;;;;13.32;12.35;;;12.30;99.90;;;;;;5066821;28;20032;-76
2021/10/04 06:28:11;;;;;;;14.13;13.07;;;12.40;99.90;;;;;;5063720;28;20028;-76
2021/10/04 06:30:37;;;;;;;13.90;12.90;;;12.40;99.90;;;;;;5056279;28;20041;-76
2021/10/04 06:33:03;;;;;;;14.35;13.25;;;12.40;99.90;;;;;;5052928;28;20025;-77
2021/10/04 06:35:29;;;;;;;14.98;13.88;;;12.40;99.90;;;;;;5052997;28;20036;-77
2021/10/04 06:37:56;;;;;;;14.75;13.75;;;12.40;99.90;;;;;;5051434;28;20041;-77
2021/10/04 06:40:22;;;;;;;14.18;13.10;;;12.50;99.90;;;;;;5052962;28;20440;-76
2021/10/04 06:42:48;;;;;;;13.25;12.35;;;12.60;99.90;;;;;;5053136;28;20040;-78
2021/10/04 06:45:15;;;;;;;11.52;10.63;;;12.60;99.90;;;;;;5053193;28;20060;-76
2021/10/04 06:47:42;;;;;;;14.30;12.98;;;12.60;99.90;;;;;;5041736;28;20488;-77
2021/10/04 06:50:09;;;;;;;12.23;11.43;;;12.60;99.90;;;;;;5052726;28;20618;-77
2021/10/04 06:52:38;;;;;;;10.52;9.52;;;12.70;99.90;;;;;;5053194;28;20051;-77
2021/10/04 06:55:05;;;;;;;9.80;9.20;;;12.70;99.90;;;;;;5052326;28;20477;-78
2021/10/04 06:57:32;;;;;;;8.18;7.22;;;12.70;99.90;;;;;;5052918;28;20040;-77
2021/10/04 06:59:58;;;;;;;9.02;8.43;;;12.60;99.90;;;;;;5052300;28;20044;-77
2021/10/04 07:02:24;;;;;;;8.90;8.13;;;12.70;99.90;;;;;;5052445;28;20029;-77
2021/10/04 07:04:50;;;;;;;11.10;10.13;;;12.80;99.90;;;;;;5052128;28;20043;-77
2021/10/04 07:07:17;;;;;;;11.63;10.63;;;12.80;99.90;;;;;;5052085;28;20049;-76
2021/10/04 07:09:43;;;;;;;10.57;9.57;;;12.80;99.90;;;;;;5035037;28;20036;-77
2021/10/04 07:12:09;;;;;;;10.63;9.82;;;12.70;99.90;;;;;;5052238;28;20466;-77
2021/10/04 07:14:36;;;;;;;10.65;9.75;;;12.70;99.90;;;;;;5052973;28;20033;-76
2021/10/04 07:17:02;;;;;;;10.63;7.85;;;12.60;99.90;;;;;;5052145;28;20041;-76
2021/10/04 07:19:29;;;;;;;9.30;8.55;;;12.50;99.90;;;;;;5054164;28;20060;-76
2021/10/04 07:21:55;;;;;;;8.45;7.60;;;12.50;99.90;;;;;;5071263;28;20021;-77
2021/10/04 07:24:22;;;;;;;8.25;7.65;;;12.40;99.90;;;;;;5053625;28;20355;-76
2021/10/04 07:26:49;;;;;;;9.02;8.25;;;12.40;99.90;;;;;;5053751;28;20418;-76
2021/10/04 07:29:16;;;;;;;9.68;8.93;;;12.40;99.90;;;;;;5066130;28;20045;-75
2021/10/04 07:31:43;;;;;;;9.68;9.05;;;12.40;99.90;;;;;;5051847;28;20029;-76
2021/10/04 07:34:09;;;;;;;10.65;9.85;;;12.40;99.90;;;;;;5044876;28;20048;-76
2021/10/04 07:36:36;;;;;;;11.32;10.23;;;12.40;99.90;;;;;;5052734;28;20025;-76
2021/10/04 07:39:05;;;;;;;10.50;9.60;;;12.50;99.90;;;;;;5070867;28;20044;-76
2021/10/04 07:41:32;;;;;;;10.65;9.82;;;12.50;99.90;;;;;;5054881;28;20489;-75
2021/10/04 07:43:58;;;;;;;7.63;6.93;;;12.50;99.90;;;;;;5051693;28;20040;-75
2021/10/04 07:46:25;;;;;;;6.30;5.80;;;12.50;99.90;;;;;;5051909;28;20486;-76
2021/10/04 07:48:52;;;;;;;4.30;4.00;;;12.60;99.90;;;;;;5051696;28;20036;-74
2021/10/04 07:51:19;;;;;;;3.03;2.83;;;12.50;99.90;;;;;;5051903;28;20041;-75
2021/10/04 07:53:46;;;;;;;3.67;2.03;;;12.40;99.90;;;;;;5056158;28;20025;-74
2021/10/04 07:56:12;;;;;;;1.80;1.70;;;12.40;99.90;;;;;;5061327;28;20025;-74
2021/10/04 07:58:39;;;;;;;2.35;2.15;;;12.40;99.90;;;;;;5051708;28;20037;-74
2021/10/04 08:01:05;;;;;;;2.80;2.45;;;12.50;99.90;;;;;;5051520;28;20033;-74
2021/10/04 08:03:31;;;;;;;3.50;1.77;;;12.60;99.90;;;;;;5034240;28;20052;-74
2021/10/04 08:05:57;;;;;;;2.63;2.28;;;12.60;99.90;;;;;;5051703;28;20473;-74
2021/10/04 08:08:23;;;;;;;2.10;2.00;;;12.70;99.90;;;;;;5034017;28;20043;-74
2021/10/04 08:10:50;;;;;;;2.78;2.28;;;12.70;99.90;;;;;;5051577;28;20044;-74
2021/10/04 08:13:16;;;;;;;2.10;1.98;;;12.80;99.90;;;;;;5034470;28;20044;-74
2021/10/04 08:15:42;;;;;;;3.50;2.45;;;12.80;99.90;;;;;;5052116;28;20040;-74
2021/10/04 08:18:08;;;;;;;2.15;1.90;;;12.70;99.90;;;;;;5049664;28;20041;-73
2021/10/04 08:20:35;;;;;;;2.03;1.77;;;12.70;99.90;;;;;;5051522;28;20470;-74
2021/10/04 08:23:01;;;;;;;3.08;1.92;;;12.70;99.90;;;;;;5037815;28;20025;-74
2021/10/04 08:25:28;;;;;;;1.92;1.83;;;12.70;99.90;;;;;;5051707;28;20413;-74
2021/10/04 08:27:54;;;;;;;1.80;1.70;;;12.80;99.90;;;;;;5051353;28;20028;-74
2021/10/04 08:30:20;;;;;;;2.55;1.83;;;12.90;99.90;;;;;;5051525;28;20041;-74
2021/10/04 08:32:47;;;;;;;3.35;2.28;;;13.00;99.90;;;;;;5051907;28;20045;-74
2021/10/04 08:35:13;;;;;;;5.72;2.08;;;13.10;99.90;;;;;;5051312;28;20044;-73
2021/10/04 08:37:40;;;;;;;1.50;1.40;;;13.00;99.90;;;;;;5051432;28;20036;-74
2021/10/04 08:40:11;;;;;;;2.03;1.52;;;13.00;99.90;;;;;;5051325;28;20037;-74
2021/10/04 08:42:39;;;;;;;1.73;1.40;;;13.00;99.90;;;;;;5054936;28;20032;-74
2021/10/04 08:45:06;;;;;;;1.92;1.65;;;13.10;99.90;;;;;;5059565;28;20056;-74
2021/10/04 08:47:38;;;;;;;2.15;1.83;;;13.10;99.90;;;;;;5057746;28;20043;-74
2021/10/04 08:50:07;;;;;;;3.90;1.30;;;13.10;99.90;;;;;;5054882;28;20036;-75
2021/10/04 08:52:34;;;;;;;2.72;1.33;;;13.10;99.90;;;;;;5055550;28;20033;-76
2021/10/04 08:55:00;;;;;;;1.35;1.17;;;13.20;99.90;;;;;;5059176;28;20032;-74
2021/10/04 08:57:28;;;;;;;1.83;1.67;;;13.20;99.90;;;;;;5060634;28;20032;-74
2021/10/04 08:59:54;;;;;;;1.35;1.23;;;13.30;99.90;;;;;;5054921;28;20037;-74
2021/10/04 09:02:31;;;;;;;2.58;1.90;;;13.30;99.90;;;;;;5055362;28;20033;-75
2021/10/04 09:05:27;;;;;;;2.03;1.67;;;13.30;99.90;;;;;;5053617;28;20041;-76
2021/10/04 09:08:02;;;;;;;4.95;1.70;;;13.20;99.90;;;;;;5037885;28;20041;-75
2021/10/04 09:10:30;;;;;;;2.00;1.55;;;13.20;99.90;;;;;;5056005;28;20045;-75
2021/10/04 09:12:59;;;;;;;2.33;2.00;;;13.20;99.90;;;;;;5054436;28;20036;-75
2021/10/04 09:15:39;;;;;;;1.92;1.77;;;13.30;99.90;;;;;;5054917;28;20046;-75
2021/10/04 09:18:26;;;;;;;1.83;1.58;;;13.30;99.90;;;;;;5055148;28;20025;-75
2021/10/04 09:21:02;;;;;;;1.25;1.15;;;13.20;99.90;;;;;;5036690;28;20029;-74
2021/10/04 09:23:52;;;;;;;1.45;1.35;;;13.20;99.90;;;;;;5037109;28;20501;-74
2021/10/04 09:26:28;;;;;;;1.65;1.23;;;13.10;99.90;;;;;;5053913;28;20029;-74
2021/10/04 09:29:08;;;;;;;3.03;1.75;;;13.30;99.90;;;;;;5054517;28;20466;-77
2021/10/04 09:31:43;;;;;;;1.63;1.42;;;13.30;99.90;;;;;;5053229;28;20056;-74
2021/10/04 09:34:24;;;;;;;1.42;1.30;;;13.30;99.90;;;;;;5068712;28;20025;-74
2021/10/04 09:36:59;;;;;;;4.25;1.27;;;13.30;99.90;;;;;;5054647;28;20374;-74
2021/10/04 09:39:35;;;;;;;2.22;1.10;;;13.40;99.90;;;;;;5054644;28;20036;-74
2021/10/04 09:42:21;;;;;;;1.00;0.85;;;13.40;99.90;;;;;;5054415;28;20344;-75
2021/10/04 09:45:01;;;;;;;0.90;0.70;;;13.30;99.90;;;;;;5054063;28;20056;-75
2021/10/04 09:47:31;;;;;;;0.93;0.70;;;13.20;99.90;;;;;;5054540;28;20040;-75
2021/10/04 09:50:11;;;;;;;1.10;0.93;;;13.20;99.90;;;;;;5054908;28;20037;-74
2021/10/04 09:52:56;;;;;;;1.60;1.05;;;13.20;99.90;;;;;;5054015;28;20063;-74
2021/10/04 09:55:25;;;;;;;1.45;1.08;;;13.30;99.90;;;;;;5061017;28;20051;-74
2021/10/04 09:58:10;;;;;;;0.93;0.80;;;13.30;99.90;;;;;;5054364;28;20474;-78
2021/10/04 10:00:44;;;;;;;4.57;0.80;;;13.40;99.90;;;;;;5053082;28;20387;-75
2021/10/04 10:03:12;;;;;;;1.40;1.08;;;13.50;99.90;;;;;;5053625;28;20378;-74
2021/10/04 10:05:43;;;;;;;3.88;0.77;;;13.50;99.90;;;;;;5053786;28;20040;-74
2021/10/04 10:08:10;;;;;;;1.20;0.80;;;13.50;99.90;;;;;;5036339;28;20044;-75
2021/10/04 10:10:43;;;;;;;1.58;0.88;;;13.50;99.90;;;;;;5053702;28;20083;-75
2021/10/04 10:13:12;;;;;;;0.90;0.80;;;13.60;99.90;;;;;;5053271;28;20040;-75
2021/10/04 10:15:46;;;;;;;1.02;0.85;;;13.80;99.90;;;;;;5054048;28;20037;-75
2021/10/04 10:18:28;;;;;;;1.67;0.95;;;13.90;99.90;;;;;;5053862;28;20047;-75
2021/10/04 10:21:19;;;;;;;1.17;0.70;;;14.00;99.90;;;;;;5053004;28;20029;-75
2021/10/04 10:23:52;;;;;;;3.38;0.70;;;14.20;99.90;;;;;;5035590;28;20047;-75
2021/10/04 10:26:30;;;;;;;1.02;0.90;;;14.30;99.90;;;;;;5052688;28;20108;-75
2021/10/04 10:29:19;;;;;;;1.33;0.90;;;14.30;99.90;;;;;;5053849;28;20355;-75
2021/10/04 10:31:52;;;;;;;0.75;0.65;;;14.20;99.90;;;;;;5053845;28;20037;-75
2021/10/04 10:34:31;;;;;;;0.60;0.60;;;14.10;99.90;;;;;;5052225;28;20040;-75
2021/10/04 10:37:15;;;;;;;0.68;0.50;;;14.10;99.90;;;;;;5052919;28;20466;-75
2021/10/04 10:39:41;;;;;;;0.82;0.63;;;14.10;99.90;;;;;;5053207;28;20033;-75
2021/10/04 10:42:35;;;;;;;1.08;0.70;;;14.20;99.90;;;;;;5052638;28;20032;-74
2021/10/04 10:45:05;;;;;;;0.50;0.43;;;14.20;99.90;;;;;;5057985;28;20528;-74
2021/10/04 10:47:34;;;;;;;0.80;0.67;;;14.20;99.90;;;;;;5051474;28;20487;-74
2021/10/04 10:50:32;;;;;;;1.02;0.57;;;14.30;99.90;;;;;;5053108;28;20784;-75
2021/10/04 10:53:27;;;;;;;1.42;0.57;;;14.50;99.90;;;;;;5051583;28;20501;-74
2021/10/04 10:55:59;;;;;;;1.25;0.55;;;14.40;99.90;;;;;;5027880;28;20359;-75
2021/10/04 10:58:33;;;;;;;0.93;0.57;;;14.40;99.90;;;;;;5053178;28;20037;-74
2021/10/04 11:01:20;;;;;;;0.82;0.50;;;14.50;99.90;;;;;;5051692;28;20052;-74
2021/10/04 11:03:50;;;;;;;0.90;0.40;;;14.60;99.90;;;;;;5052826;28;20032;-74
2021/10/04 11:06:17;;;;;;;0.40;0.40;;;14.70;99.90;;;;;;5034372;28;20497;-74
2021/10/04 11:08:46;;;;;;;1.92;0.60;;;14.80;99.90;;;;;;5052471;28;20092;-74
2021/10/04 11:11:21;;;;;;;0.57;0.40;;;14.90;99.90;;;;;;5034147;28;20053;-74
2021/10/04 11:14:02;;;;;;;1.13;0.40;;;14.80;99.90;;;;;;5052876;28;20482;-73
2021/10/04 11:16:34;;;;;;;0.30;0.30;;;14.80;99.90;;;;;;5052548;28;20029;-73
2021/10/04 11:19:01;;;;;;;1.75;0.95;;;14.80;99.90;;;;;;5068892;28;20466;-73
2021/10/04 11:21:29;;;;;;;0.60;0.40;;;14.90;99.90;;;;;;5052745;28;20354;-73
2021/10/04 11:23:59;;;;;;;1.17;0.90;;;14.80;99.90;;;;;;5050923;28;20371;-75
2021/10/04 11:26:26;;;;;;;1.70;0.40;;;14.80;99.90;;;;;;5052472;28;20033;-74
2021/10/04 11:29:00;;;;;;;0.43;0.30;;;14.70;99.90;;;;;;5052054;28;20037;-73
2021/10/04 11:31:44;;;;;;;0.90;0.70;;;14.70;99.90;;;;;;5052168;28;20049;-73
2021/10/04 11:34:15;;;;;;;0.68;0.40;;;14.70;99.90;;;;;;5054000;28;20041;-73
2021/10/04 11:36:50;;;;;;;1.08;0.65;;;14.60;99.90;;;;;;5062977;28;20076;-73
2021/10/04 11:39:22;;;;;;;2.83;0.60;;;14.70;99.90;;;;;;5034343;28;20045;-74
2021/10/04 11:41:55;;;;;;;4.45;0.60;;;14.70;99.90;;;;;;5061941;28;20044;-73
2021/10/04 11:44:25;;;;;;;1.58;1.08;;;14.80;99.90;;;;;;5054015;28;20045;-74
2021/10/04 11:47:07;;;;;;;0.97;0.83;;;14.80;99.90;;;;;;5054542;28;20061;-75
2021/10/04 11:49:39;;;;;;;0.65;0.52;;;14.70;99.90;;;;;;5055447;28;20051;-73
2021/10/04 11:52:15;;;;;;;0.60;0.50;;;14.70;99.90;;;;;;5055104;28;20040;-73
2021/10/04 11:54:48;;;;;;;5.43;1.10;;;14.70;99.90;;;;;;5054330;28;20040;-72
2021/10/04 11:57:20;;;;;;;1.70;1.02;;;14.90;99.90;;;;;;5051794;28;20037;-72
2021/10/04 12:00:00;;;;;;;1.20;0.88;;;15.00;99.90;;;;;;5051601;28;20036;-72
2021/10/04 12:02:33;;;;;;;5.28;0.60;;;15.30;99.90;;;;;;5051912;28;20033;-73
2021/10/04 12:05:13;;;;;;;1.35;0.90;;;15.50;99.90;;;;;;5051818;28;20502;-73
2021/10/04 12:07:59;;;;;;;1.05;0.80;;;15.40;99.90;;;;;;5051814;28;20040;-73
2021/10/04 12:10:59;;;;;;;1.52;0.70;;;15.40;99.90;;;;;;5051855;28;20037;-73
2021/10/04 12:13:32;;;;;;;0.98;0.60;;;15.30;99.90;;;;;;5052079;28;20128;-73
2021/10/04 12:16:06;;;;;;;0.80;0.80;;;15.10;99.90;;;;;;5051955;28;20036;-72
2021/10/04 12:18:33;;;;;;;0.77;0.70;;;15.10;99.90;;;;;;5055710;28;20263;-73
2021/10/04 12:21:22;;;;;;;0.77;0.50;;;15.00;99.90;;;;;;5066047;28;20040;-72
2021/10/04 12:24:18;;;;;;;3.50;0.65;;;15.10;99.90;;;;;;5064675;28;20040;-73
2021/10/04 12:27:09;;;;;;;0.88;0.65;;;15.10;99.90;;;;;;5058570;28;20035;-75
2021/10/04 12:29:41;;;;;;;0.50;0.32;;;15.20;99.90;;;;;;5061155;28;20040;-73
2021/10/04 12:32:39;;;;;;;0.60;0.47;;;15.30;99.90;;;;;;5037965;28;20041;-73
2021/10/04 12:35:09;;;;;;;1.15;0.30;;;15.30;99.90;;;;;;5057498;28;20041;-75
2021/10/04 12:37:54;;;;;;;0.40;0.35;;;15.20;99.90;;;;;;5073388;28;20035;-75
2021/10/04 12:40:30;;;;;;;1.02;0.80;;;15.30;99.90;;;;;;5038497;28;20060;-76
2021/10/04 12:43:07;;;;;;;0.95;0.57;;;15.30;99.90;;;;;;5055877;28;20033;-77
2021/10/04 12:45:35;;;;;;;0.52;0.40;;;15.40;99.90;;;;;;5056392;28;20396;-76
2021/10/04 12:48:06;;;;;;;1.80;0.68;;;15.40;99.90;;;;;;5056108;28;20037;-77
2021/10/04 12:50:38;;;;;;;0.52;0.43;;;15.60;99.90;;;;;;5072097;28;20052;-77
2021/10/04 12:53:22;;;;;;;1.02;0.50;;;15.60;99.70;;;;;;5061629;28;20045;-76
2021/10/04 12:56:10;;;;;;;0.47;0.35;;;15.70;99.90;;;;;;5054575;28;20044;-78
2021/10/04 12:58:38;;;;;;;0.43;0.28;;;15.70;99.80;;;;;;5041487;28;20029;-77